Time;durP1;ratioP1;P1;durP2;ratioP2;P2;SDS_P1;SDS_P2;PMS_P1;PMS_P2;Temp;Humidity;BMP_temperature;BMP_pressure;BME280_temperature;BME280_humidity;BME280_pressure;Samples;Min_cycle;Max_cycle;Signal;HPM_P1;HPM_P2
2023/03/21 00:01:13;;;;;;;10.53;9.53;;;8.30;99.90;;;;;;6240103;23;20229;-77
2023/03/21 00:03:39;;;;;;;10.67;9.67;;;8.30;99.90;;;;;;6240447;23;20181;-78
2023/03/21 00:06:07;;;;;;;10.73;9.67;;;8.30;99.90;;;;;;6214207;23;20184;-78
2023/03/21 00:08:33;;;;;;;13.30;10.20;;;8.40;99.90;;;;;;6213786;23;20185;-78
2023/03/21 00:11:01;;;;;;;11.23;10.03;;;8.30;99.90;;;;;;6239579;23;20138;-77
2023/03/21 00:13:31;;;;;;;11.50;10.50;;;8.30;99.90;;;;;;6238646;23;20174;-77
2023/03/21 00:16:04;;;;;;;11.00;10.00;;;8.40;99.90;;;;;;6212223;23;20165;-77
2023/03/21 00:18:30;;;;;;;11.27;10.17;;;8.40;99.90;;;;;;6238961;23;20228;-77
2023/03/21 00:21:01;;;;;;;11.93;10.80;;;8.30;99.90;;;;;;6238811;23;20178;-77
2023/03/21 00:23:29;;;;;;;12.13;10.20;;;8.30;99.90;;;;;;6238529;23;20200;-77
2023/03/21 00:25:55;;;;;;;11.60;10.40;;;8.30;99.90;;;;;;6212258;23;20550;-77
2023/03/21 00:28:21;;;;;;;11.40;10.27;;;8.30;99.90;;;;;;6212054;23;20161;-77
2023/03/21 00:30:46;;;;;;;11.87;10.70;;;8.30;99.90;;;;;;6238226;23;20465;-78
2023/03/21 00:33:12;;;;;;;14.53;11.20;;;8.30;99.90;;;;;;6211934;23;20150;-77
2023/03/21 00:35:42;;;;;;;12.13;10.80;;;8.30;99.90;;;;;;6238296;23;20164;-77
2023/03/21 00:38:08;;;;;;;14.47;10.63;;;8.30;99.90;;;;;;6239132;23;20840;-77
2023/03/21 00:40:34;;;;;;;11.87;10.67;;;8.30;99.90;;;;;;6238795;23;20158;-77
2023/03/21 00:42:59;;;;;;;11.70;10.50;;;8.20;99.90;;;;;;6211341;23;20641;-77
2023/03/21 00:45:25;;;;;;;14.37;10.90;;;8.20;99.90;;;;;;6238797;23;20204;-77
2023/03/21 00:47:50;;;;;;;13.40;12.00;;;8.20;99.90;;;;;;6212134;23;20157;-77
2023/03/21 00:50:17;;;;;;;13.73;11.27;;;8.20;99.90;;;;;;6211974;23;20287;-77
2023/03/21 00:52:42;;;;;;;13.63;11.40;;;8.20;99.90;;;;;;6238563;23;20150;-77
2023/03/21 00:55:13;;;;;;;12.83;11.50;;;8.20;99.90;;;;;;6238352;23;20200;-79
2023/03/21 00:57:39;;;;;;;13.23;11.83;;;8.10;99.90;;;;;;6238612;23;20134;-77
2023/03/21 01:00:08;;;;;;;13.60;12.20;;;8.10;99.90;;;;;;6211780;23;20166;-77
2023/03/21 01:02:34;;;;;;;13.97;12.50;;;8.10;99.90;;;;;;6211351;23;20170;-77
2023/03/21 01:04:59;;;;;;;15.17;12.33;;;8.10;99.90;;;;;;6211331;23;20524;-78
2023/03/21 01:07:25;;;;;;;22.40;13.67;;;8.10;99.90;;;;;;6211814;23;20491;-77
2023/03/21 01:09:50;;;;;;;15.43;13.17;;;8.00;99.90;;;;;;6238475;23;20255;-78
2023/03/21 01:12:16;;;;;;;17.37;13.03;;;8.00;1.00;;;;;;6211494;23;20157;-78
2023/03/21 01:14:41;;;;;;;15.97;13.30;;;7.90;1.00;;;;;;6238393;23;20179;-78
2023/03/21 01:17:07;;;;;;;13.33;11.80;;;8.00;1.00;;;;;;6212015;23;20181;-78
2023/03/21 01:19:33;;;;;;;14.80;12.40;;;8.00;1.00;;;;;;6238575;23;20228;-78
2023/03/21 01:21:58;;;;;;;15.67;12.70;;;8.00;1.00;;;;;;6240515;23;20165;-78
2023/03/21 01:24:24;;;;;;;15.10;12.87;;;8.10;1.00;;;;;;6211996;23;20315;-78
2023/03/21 01:26:50;;;;;;;14.00;12.53;;;8.10;1.00;;;;;;6239387;23;20195;-78
2023/03/21 01:29:15;;;;;;;18.57;12.90;;;8.10;1.00;;;;;;6212316;23;20193;-77
2023/03/21 01:31:41;;;;;;;14.70;13.20;;;8.10;1.00;;;;;;6239079;23;20153;-78
2023/03/21 01:34:07;;;;;;;13.73;12.33;;;8.10;1.00;;;;;;6238705;23;20681;-77
2023/03/21 01:36:32;;;;;;;14.53;12.60;;;8.10;1.00;;;;;;6239557;23;20161;-77
2023/03/21 01:38:58;;;;;;;16.73;13.27;;;8.10;1.00;;;;;;6212406;23;20161;-77
2023/03/21 01:41:34;;;;;;;15.07;12.83;;;8.20;1.00;;;;;;6239120;23;20164;-78
2023/03/21 01:44:00;;;;;;;14.20;12.70;;;8.10;1.00;;;;;;6239029;23;20177;-78
2023/03/21 01:46:36;;;;;;;14.63;13.13;;;8.10;1.00;;;;;;6239284;23;20146;-78
2023/03/21 01:49:06;;;;;;;14.20;12.70;;;8.10;1.00;;;;;;6239032;23;20276;-77
2023/03/21 01:51:36;;;;;;;13.37;12.10;;;8.10;1.00;;;;;;6212126;23;20586;-77
2023/03/21 01:54:05;;;;;;;14.33;12.93;;;8.10;1.00;;;;;;6211514;23;20204;-77
2023/03/21 01:56:36;;;;;;;15.93;13.47;;;8.70;1.00;;;;;;6239686;23;20236;-77
2023/03/21 01:59:08;;;;;;;15.10;13.00;;;8.10;1.00;;;;;;6239453;23;20142;-77
2023/03/21 02:01:37;;;;;;;13.23;11.77;;;8.20;1.00;;;;;;6238978;23;20152;-78
2023/03/21 02:04:03;;;;;;;13.47;12.10;;;8.10;1.00;;;;;;6239288;23;20201;-78
2023/03/21 02:06:42;;;;;;;14.70;13.10;;;8.10;1.00;;;;;;6242302;23;20642;-77
2023/03/21 02:09:12;;;;;;;14.80;12.70;;;8.10;1.00;;;;;;6238889;23;20196;-78
2023/03/21 02:11:38;;;;;;;12.90;11.60;;;8.10;1.00;;;;;;6238877;23;20170;-77
2023/03/21 02:14:04;;;;;;;13.33;12.00;;;8.10;1.00;;;;;;6211667;23;20289;-78
2023/03/21 02:16:41;;;;;;;13.73;12.33;;;8.00;1.00;;;;;;6241342;23;20614;-78
2023/03/21 02:19:25;;;;;;;13.83;11.83;;;8.00;1.00;;;;;;6241166;23;20196;-78
2023/03/21 02:22:15;;;;;;;13.50;12.03;;;8.00;1.00;;;;;;6240767;23;20148;-78
2023/03/21 02:25:15;;;;;;;14.03;12.53;;;7.90;1.00;;;;;;6213877;23;20189;-77
2023/03/21 02:28:14;;;;;;;14.77;12.30;;;8.00;99.90;;;;;;6240653;23;20138;-78
2023/03/21 02:31:04;;;;;;;13.37;11.50;;;8.00;95.00;;;;;;6233126;23;20186;-78
2023/03/21 02:34:00;;;;;;;15.27;12.13;;;8.00;82.00;;;;;;6214305;23;20225;-77
2023/03/21 02:37:01;;;;;;;14.87;11.67;;;8.00;1.00;;;;;;6241139;23;20196;-78
2023/03/21 02:39:54;;;;;;;14.13;12.37;;;8.10;30.60;;;;;;6207426;23;20160;-77
2023/03/21 02:43:09;;;;;;;14.37;12.03;;;8.10;1.00;;;;;;6213704;23;20181;-77
2023/03/21 02:46:07;;;;;;;13.30;11.17;;;8.10;1.00;;;;;;6180803;23;20157;-77
2023/03/21 02:48:50;;;;;;;13.27;11.87;;;8.10;1.00;;;;;;6213998;23;20154;-78
2023/03/21 02:51:20;;;;;;;15.20;12.20;;;8.00;1.00;;;;;;6241967;23;20130;-78
2023/03/21 02:53:52;;;;;;;15.63;12.60;;;8.00;5.00;;;;;;6215879;23;20230;-77
2023/03/21 02:56:19;;;;;;;16.97;11.97;;;8.00;91.60;;;;;;6216377;23;20154;-77
2023/03/21 02:58:45;;;;;;;14.83;13.20;;;8.00;79.80;;;;;;6242914;23;20157;-78
2023/03/21 03:01:11;;;;;;;16.30;12.17;;;8.10;94.20;;;;;;6243254;23;20154;-77
2023/03/21 03:03:38;;;;;;;15.43;12.67;;;8.10;1.00;;;;;;6241894;23;20578;-77
2023/03/21 03:06:14;;;;;;;14.10;12.63;;;8.10;1.00;;;;;;6242745;23;20228;-77
2023/03/21 03:09:07;;;;;;;13.53;11.83;;;8.10;1.00;;;;;;6214175;23;20208;-77
2023/03/21 03:11:34;;;;;;;16.07;12.40;;;8.00;1.00;;;;;;6242941;23;20168;-77
2023/03/21 03:14:23;;;;;;;13.57;12.23;;;8.00;1.00;;;;;;6242920;23;20630;-77
2023/03/21 03:17:21;;;;;;;15.60;12.40;;;8.10;1.00;;;;;;6216255;23;20556;-77
2023/03/21 03:20:11;;;;;;;16.70;12.43;;;8.00;34.20;;;;;;6242462;23;20166;-77
2023/03/21 03:22:58;;;;;;;15.57;12.20;;;8.10;42.10;;;;;;6215560;23;20184;-78
2023/03/21 03:25:51;;;;;;;14.83;12.77;;;8.10;91.40;;;;;;6241932;23;20177;-78
2023/03/21 03:28:22;;;;;;;15.10;12.87;;;8.10;52.20;;;;;;6215410;23;20181;-78
2023/03/21 03:30:50;;;;;;;13.10;11.80;;;8.10;28.50;;;;;;6213030;23;20181;-77
2023/03/21 03:33:16;;;;;;;13.90;12.50;;;8.10;1.00;;;;;;6239280;23;20208;-77
2023/03/21 03:35:43;;;;;;;14.33;12.20;;;8.10;1.00;;;;;;6213465;23;20169;-78
2023/03/21 03:38:11;;;;;;;13.43;12.00;;;8.10;1.00;;;;;;6240243;23;20586;-78
2023/03/21 03:40:44;;;;;;;13.20;11.40;;;8.10;1.00;;;;;;6239984;23;20150;-78
2023/03/21 03:43:17;;;;;;;15.53;12.67;;;8.10;1.00;;;;;;6212824;23;20158;-78
2023/03/21 03:45:48;;;;;;;13.13;11.80;;;8.10;1.00;;;;;;6240147;23;20138;-78
2023/03/21 03:48:38;;;;;;;13.00;11.60;;;8.10;1.00;;;;;;6212886;23;20178;-78
2023/03/21 03:51:11;;;;;;;14.07;12.13;;;8.10;1.00;;;;;;6213584;23;20641;-78
2023/03/21 03:54:06;;;;;;;14.57;12.37;;;8.10;1.00;;;;;;6239755;23;20228;-78
2023/03/21 03:56:32;;;;;;;14.57;11.13;;;8.10;1.00;;;;;;6213306;23;20160;-78
2023/03/21 03:59:00;;;;;;;13.70;12.30;;;8.10;1.00;;;;;;6212682;23;20236;-78
2023/03/21 04:01:26;;;;;;;15.27;12.63;;;8.20;1.00;;;;;;6239497;23;20625;-78
2023/03/21 04:03:52;;;;;;;14.67;11.77;;;8.20;1.00;;;;;;6239671;23;20200;-78
2023/03/21 04:06:18;;;;;;;14.07;12.20;;;8.10;1.00;;;;;;6240385;23;20661;-78
2023/03/21 04:08:44;;;;;;;13.80;11.27;;;8.10;1.00;;;;;;6239951;23;20227;-79
2023/03/21 04:11:12;;;;;;;14.07;12.43;;;8.10;1.00;;;;;;6240583;23;20149;-78
2023/03/21 04:13:37;;;;;;;12.30;10.77;;;8.10;1.00;;;;;;6212500;23;20204;-78
2023/03/21 04:16:03;;;;;;;12.43;11.13;;;8.10;1.00;;;;;;6239604;23;20594;-79
2023/03/21 04:18:29;;;;;;;13.57;11.37;;;8.10;1.00;;;;;;6239643;23;20162;-77
2023/03/21 04:20:55;;;;;;;12.93;10.90;;;8.10;1.00;;;;;;6239161;23;20161;-78
2023/03/21 04:23:22;;;;;;;14.33;11.50;;;8.10;1.00;;;;;;6212197;23;20178;-78
2023/03/21 04:25:47;;;;;;;13.87;10.87;;;8.10;1.00;;;;;;6212908;23;20157;-78
2023/03/21 04:28:13;;;;;;;15.17;11.23;;;8.10;1.00;;;;;;6239271;23;20141;-78
2023/03/21 04:30:40;;;;;;;16.23;11.53;;;8.20;1.00;;;;;;6239232;23;20182;-79
2023/03/21 04:33:06;;;;;;;14.30;11.10;;;8.30;1.00;;;;;;6239333;23;20538;-78
2023/03/21 04:35:33;;;;;;;16.47;12.00;;;8.30;1.00;;;;;;6212087;23;20178;-78
2023/03/21 04:37:58;;;;;;;14.13;11.87;;;8.30;1.00;;;;;;6239010;23;20153;-78
2023/03/21 04:40:24;;;;;;;16.00;11.93;;;8.30;1.00;;;;;;6211798;23;20162;-77
2023/03/21 04:42:50;;;;;;;17.20;13.20;;;8.30;1.00;;;;;;6237966;23;20154;-77
2023/03/21 04:45:16;;;;;;;15.97;14.00;;;8.30;1.00;;;;;;6211376;23;20552;-77
2023/03/21 04:47:42;;;;;;;17.73;13.33;;;8.20;1.00;;;;;;6211380;23;20161;-77
2023/03/21 04:50:09;;;;;;;15.43;13.73;;;8.10;26.80;;;;;;6238117;23;20243;-77
2023/03/21 04:52:35;;;;;;;16.93;13.77;;;8.10;90.20;;;;;;6211146;23;20158;-77
2023/03/21 04:55:01;;;;;;;16.30;13.90;;;8.10;99.90;;;;;;6237823;23;20177;-77
2023/03/21 04:57:26;;;;;;;15.77;14.17;;;8.10;99.90;;;;;;6238359;23;20972;-77
2023/03/21 04:59:52;;;;;;;15.93;14.33;;;8.10;99.90;;;;;;6237832;23;20164;-77
2023/03/21 05:02:17;;;;;;;15.70;13.73;;;8.00;99.90;;;;;;6238197;23;20314;-77
2023/03/21 05:04:43;;;;;;;15.67;14.07;;;8.10;1.00;;;;;;6210083;23;20625;-77
2023/03/21 05:07:09;;;;;;;15.60;13.40;;;8.00;1.00;;;;;;6211250;23;20168;-78
2023/03/21 05:09:35;;;;;;;15.00;13.43;;;8.00;1.00;;;;;;6210894;23;20288;-77
2023/03/21 05:12:00;;;;;;;17.97;14.83;;;8.00;1.00;;;;;;6210953;23;20239;-78
2023/03/21 05:14:26;;;;;;;16.97;13.77;;;8.10;1.00;;;;;;6237779;23;20165;-78
2023/03/21 05:16:54;;;;;;;15.40;13.80;;;8.10;1.00;;;;;;6237742;23;20146;-77
2023/03/21 05:19:24;;;;;;;15.77;13.90;;;8.10;1.00;;;;;;6238103;23;20491;-78
2023/03/21 05:21:50;;;;;;;16.40;13.77;;;8.20;1.00;;;;;;6237126;23;20153;-78
2023/03/21 05:24:18;;;;;;;19.10;15.03;;;8.10;1.00;;;;;;6211004;23;20240;-77
2023/03/21 05:26:51;;;;;;;17.07;14.40;;;8.10;1.00;;;;;;6237689;23;20146;-78
2023/03/21 05:29:18;;;;;;;20.40;15.07;;;8.10;1.00;;;;;;6237862;23;20261;-77
2023/03/21 05:31:44;;;;;;;17.33;13.83;;;8.10;1.00;;;;;;6237185;23;20146;-77
2023/03/21 05:34:11;;;;;;;16.13;14.33;;;8.10;1.00;;;;;;6237562;23;21011;-77
2023/03/21 05:36:37;;;;;;;15.47;13.57;;;8.10;1.00;;;;;;6237822;23;20601;-77
2023/03/21 05:39:03;;;;;;;15.70;13.93;;;8.10;1.00;;;;;;6237260;23;20207;-77
2023/03/21 05:41:29;;;;;;;17.03;14.57;;;8.10;1.00;;;;;;6238066;23;20164;-77
2023/03/21 05:43:54;;;;;;;16.53;13.93;;;8.10;1.00;;;;;;6237587;23;20209;-77
2023/03/21 05:46:20;;;;;;;17.27;14.23;;;8.00;1.00;;;;;;6211015;23;20162;-77
2023/03/21 05:48:45;;;;;;;15.47;13.90;;;8.00;1.00;;;;;;6238498;23;20207;-77
2023/03/21 05:51:11;;;;;;;15.93;13.67;;;8.00;1.00;;;;;;6212843;23;20189;-77
2023/03/21 05:53:37;;;;;;;14.83;13.17;;;8.10;1.00;;;;;;6239696;23;20176;-77
2023/03/21 05:56:02;;;;;;;16.30;14.03;;;8.00;1.00;;;;;;6213414;23;20153;-78
2023/03/21 05:58:28;;;;;;;15.43;13.83;;;8.10;1.00;;;;;;6240505;23;20158;-78
2023/03/21 06:00:54;;;;;;;14.60;12.77;;;8.10;1.00;;;;;;6213419;23;20172;-78
2023/03/21 06:03:19;;;;;;;15.53;13.60;;;8.10;1.00;;;;;;6212937;23;20897;-77
2023/03/21 06:05:45;;;;;;;15.80;13.53;;;8.10;1.00;;;;;;6240296;23;20542;-77
2023/03/21 06:08:11;;;;;;;18.17;13.77;;;8.10;1.00;;;;;;6240058;23;20199;-77
2023/03/21 06:10:37;;;;;;;16.47;13.77;;;8.20;1.00;;;;;;6239638;23;20181;-77
2023/03/21 06:13:03;;;;;;;15.50;13.23;;;8.20;1.00;;;;;;6239116;23;20614;-77
2023/03/21 06:15:29;;;;;;;16.07;13.17;;;8.20;1.00;;;;;;6212410;23;20182;-76
2023/03/21 06:17:55;;;;;;;17.97;13.20;;;8.20;1.00;;;;;;6213088;23;20235;-77
2023/03/21 06:20:20;;;;;;;15.60;13.30;;;8.20;1.00;;;;;;6239956;23;20158;-77
2023/03/21 06:22:46;;;;;;;14.53;12.47;;;8.20;1.00;;;;;;6240312;23;20173;-79
2023/03/21 06:25:12;;;;;;;16.10;12.40;;;8.20;1.00;;;;;;6239761;23;20200;-77
2023/03/21 06:27:38;;;;;;;15.93;12.67;;;8.30;1.00;;;;;;6239898;23;20161;-78
2023/03/21 06:30:04;;;;;;;15.50;12.83;;;8.30;1.00;;;;;;6240047;23;20252;-77
2023/03/21 06:32:30;;;;;;;15.20;13.60;;;8.30;1.00;;;;;;6239735;23;20199;-77
2023/03/21 06:34:56;;;;;;;16.00;13.53;;;8.30;1.00;;;;;;6240647;23;20170;-76
2023/03/21 06:37:22;;;;;;;15.33;12.80;;;8.30;1.00;;;;;;6240246;23;20473;-77
2023/03/21 06:39:48;;;;;;;13.23;11.70;;;8.40;1.00;;;;;;6240420;23;20209;-77
2023/03/21 06:42:14;;;;;;;14.47;12.87;;;8.40;1.00;;;;;;6240346;23;20146;-76
2023/03/21 06:44:39;;;;;;;16.47;13.23;;;8.40;1.00;;;;;;6240184;23;20182;-78
2023/03/21 06:47:05;;;;;;;14.00;11.57;;;8.40;1.00;;;;;;6240256;23;20624;-77
2023/03/21 06:49:31;;;;;;;15.40;12.47;;;8.50;1.00;;;;;;6212635;23;20649;-77
2023/03/21 06:51:57;;;;;;;15.60;12.00;;;8.50;1.00;;;;;;6240002;23;20153;-77
2023/03/21 06:54:22;;;;;;;14.70;11.73;;;8.50;1.00;;;;;;6239039;23;20181;-77
2023/03/21 06:56:48;;;;;;;12.83;11.53;;;8.50;99.90;;;;;;6212655;23;20770;-77
2023/03/21 06:59:14;;;;;;;13.53;10.90;;;8.60;99.90;;;;;;6238427;23;20169;-77
2023/03/21 07:01:39;;;;;;;12.47;11.27;;;8.70;99.90;;;;;;6237699;23;20499;-77
2023/03/21 07:04:05;;;;;;;12.73;10.90;;;8.70;99.90;;;;;;6238675;23;20178;-78
2023/03/21 07:06:31;;;;;;;13.57;11.87;;;8.80;99.90;;;;;;6240721;23;20142;-77
2023/03/21 07:08:57;;;;;;;11.50;10.30;;;8.90;1.00;;;;;;6239413;23;20177;-77
2023/03/21 07:11:24;;;;;;;14.30;11.50;;;9.00;1.00;;;;;;6239117;23;20150;-77
2023/03/21 07:13:50;;;;;;;12.70;11.23;;;9.00;1.00;;;;;;6241706;23;20305;-78
2023/03/21 07:16:17;;;;;;;14.40;11.17;;;9.10;1.00;;;;;;6242134;23;20134;-78
2023/03/21 07:18:43;;;;;;;13.53;10.77;;;9.10;1.00;;;;;;6243344;23;20158;-78
2023/03/21 07:21:09;;;;;;;13.47;10.80;;;9.20;1.00;;;;;;6244308;23;20181;-77
2023/03/21 07:23:37;;;;;;;11.43;10.23;;;9.30;99.90;;;;;;6236631;23;20454;-77
2023/03/21 07:26:03;;;;;;;13.70;10.37;;;9.30;99.90;;;;;;6210516;23;20161;-78
2023/03/21 07:28:30;;;;;;;11.47;9.80;;;9.40;99.90;;;;;;6238896;23;20648;-78
2023/03/21 07:30:58;;;;;;;11.83;10.50;;;9.40;99.90;;;;;;6237798;23;20295;-77
2023/03/21 07:33:24;;;;;;;11.65;9.88;;;9.50;99.90;;;;;;6237970;23;20221;-77
2023/03/21 07:35:52;;;;;;;10.53;9.43;;;9.60;99.90;;;;;;6238291;23;20160;-77
2023/03/21 07:38:19;;;;;;;12.10;10.00;;;9.70;99.90;;;;;;6237940;23;20138;-77
2023/03/21 07:40:46;;;;;;;14.10;10.30;;;9.80;99.90;;;;;;6237870;23;20153;-77
2023/03/21 07:43:14;;;;;;;13.48;11.18;;;9.90;99.90;;;;;;6210014;23;20192;-78
2023/03/21 07:45:41;;;;;;;10.87;9.77;;;10.00;99.90;;;;;;6237568;23;20153;-78
2023/03/21 07:48:07;;;;;;;13.67;10.80;;;10.00;99.90;;;;;;6238719;23;20142;-77
2023/03/21 07:50:33;;;;;;;12.25;10.15;;;10.00;99.90;;;;;;6239793;23;20252;-78
2023/03/21 07:52:59;;;;;;;11.57;10.40;;;10.00;99.90;;;;;;6239248;23;20173;-78
2023/03/21 07:55:25;;;;;;;12.15;9.57;;;10.10;99.90;;;;;;6239449;23;20170;-78
2023/03/21 07:57:51;;;;;;;12.68;10.20;;;10.20;99.90;;;;;;6237725;23;20209;-77
2023/03/21 08:00:21;;;;;;;12.63;9.95;;;10.30;99.90;;;;;;6239769;23;20500;-78
2023/03/21 08:02:55;;;;;;;11.10;9.85;;;10.40;99.90;;;;;;6239283;23;20154;-77
2023/03/21 08:05:22;;;;;;;13.63;9.68;;;10.50;99.90;;;;;;6211591;23;20201;-77
2023/03/21 08:07:49;;;;;;;12.40;9.85;;;10.50;99.90;;;;;;6212500;23;20243;-77
2023/03/21 08:10:15;;;;;;;14.63;10.70;;;10.50;99.90;;;;;;6239023;23;20582;-77
2023/03/21 08:12:40;;;;;;;12.65;9.63;;;10.50;99.90;;;;;;6212605;23;20240;-78
2023/03/21 08:15:07;;;;;;;13.68;9.20;;;10.50;97.70;;;;;;6212431;23;20201;-78
2023/03/21 08:17:35;;;;;;;13.02;9.70;;;10.50;99.90;;;;;;6240066;23;20249;-77
2023/03/21 08:20:00;;;;;;;11.70;9.13;;;10.60;96.30;;;;;;6239658;23;20543;-77
2023/03/21 08:22:26;;;;;;;13.50;9.57;;;10.60;79.60;;;;;;6238767;23;20169;-77
2023/03/21 08:24:51;;;;;;;12.00;9.50;;;10.70;84.00;;;;;;6211931;23;20552;-77
2023/03/21 08:27:19;;;;;;;12.40;9.68;;;10.60;79.00;;;;;;6239661;23;20142;-77
2023/03/21 08:29:45;;;;;;;15.90;10.00;;;10.60;74.20;;;;;;6212200;23;20189;-78
2023/03/21 08:32:10;;;;;;;12.52;9.55;;;10.70;55.00;;;;;;6239430;23;20154;-77
2023/03/21 08:34:36;;;;;;;14.40;9.75;;;10.70;54.00;;;;;;6238912;23;20172;-77
2023/03/21 08:37:01;;;;;;;10.73;9.02;;;10.70;58.30;;;;;;6239239;23;20146;-78
2023/03/21 08:39:27;;;;;;;13.23;9.32;;;10.80;55.30;;;;;;6238146;23;20154;-77
2023/03/21 08:41:53;;;;;;;14.32;8.98;;;10.90;49.00;;;;;;6238653;23;20142;-78
2023/03/21 08:44:20;;;;;;;10.75;9.18;;;10.90;34.00;;;;;;6238499;23;20567;-78
2023/03/21 08:46:46;;;;;;;13.95;9.88;;;10.80;29.60;;;;;;6239753;23;20134;-80
2023/03/21 08:49:12;;;;;;;12.15;9.65;;;10.80;35.00;;;;;;6237364;23;20185;-77
2023/03/21 08:51:40;;;;;;;12.13;9.68;;;10.70;43.20;;;;;;6236870;23;20153;-79
2023/03/21 08:54:06;;;;;;;13.02;9.10;;;10.90;38.20;;;;;;6209634;23;20180;-78
2023/03/21 08:56:31;;;;;;;11.07;8.95;;;10.90;36.40;;;;;;6209224;23;20219;-78
2023/03/21 08:58:57;;;;;;;10.57;9.18;;;11.10;21.60;;;;;;6237239;23;20998;-78
2023/03/21 09:01:23;;;;;;;12.95;9.23;;;11.20;16.10;;;;;;6210459;23;20863;-80
2023/03/21 09:03:49;;;;;;;14.98;10.13;;;11.30;10.90;;;;;;6209377;23;20220;-78
2023/03/21 09:06:14;;;;;;;12.45;9.98;;;11.40;9.00;;;;;;6209554;23;20153;-77
2023/03/21 09:08:40;;;;;;;12.85;9.27;;;11.40;3.00;;;;;;6210857;23;20162;-77
2023/03/21 09:11:07;;;;;;;13.38;9.60;;;11.50;1.00;;;;;;6238321;23;20153;-78
2023/03/21 09:13:33;;;;;;;12.85;8.68;;;11.50;1.00;;;;;;6236874;23;20178;-78
2023/03/21 09:16:00;;;;;;;14.05;9.48;;;11.50;1.00;;;;;;6208132;23;20165;-78
2023/03/21 09:18:37;;;;;;;13.05;8.88;;;11.60;1.00;;;;;;6208925;23;20146;-77
2023/03/21 09:21:11;;;;;;;13.57;8.98;;;11.50;1.00;;;;;;6236108;23;20159;-78
2023/03/21 09:23:38;;;;;;;14.57;9.68;;;11.40;1.00;;;;;;6233526;23;20246;-77
2023/03/21 09:26:04;;;;;;;14.68;9.25;;;11.40;1.00;;;;;;6209693;23;20162;-78
2023/03/21 09:28:30;;;;;;;14.35;9.23;;;11.40;1.00;;;;;;6210269;23;20154;-77
2023/03/21 09:30:59;;;;;;;15.15;9.52;;;11.40;1.00;;;;;;6211761;23;20185;-78
2023/03/21 09:33:26;;;;;;;11.60;9.52;;;11.40;1.00;;;;;;6214050;23;20634;-78
2023/03/21 09:35:53;;;;;;;11.18;9.10;;;11.40;1.00;;;;;;6208872;23;20146;-78
2023/03/21 09:38:19;;;;;;;12.50;8.57;;;11.40;1.00;;;;;;6239208;23;20154;-78
2023/03/21 09:41:21;;;;;;;15.10;9.60;;;11.30;1.00;;;;;;6213090;23;20192;-79
2023/03/21 09:44:07;;;;;;;13.77;9.30;;;11.40;1.00;;;;;;6241272;23;20180;-78
2023/03/21 09:47:01;;;;;;;15.63;9.95;;;11.40;1.00;;;;;;6214137;23;20150;-79
2023/03/21 09:49:31;;;;;;;12.77;9.57;;;11.50;1.00;;;;;;6243884;23;20537;-76
2023/03/21 09:52:15;;;;;;;11.27;9.70;;;11.50;1.00;;;;;;6214645;23;20153;-78
2023/03/21 09:54:44;;;;;;;10.10;9.02;;;11.50;1.00;;;;;;6212904;23;20247;-78
2023/03/21 09:57:22;;;;;;;12.13;8.88;;;11.70;1.00;;;;;;6241586;23;20622;-78
2023/03/21 09:59:52;;;;;;;12.98;9.20;;;11.70;1.00;;;;;;6240976;23;20570;-78
2023/03/21 10:02:37;;;;;;;12.27;8.90;;;11.90;1.00;;;;;;6241020;23;20134;-78
2023/03/21 10:05:25;;;;;;;13.88;8.85;;;12.00;1.00;;;;;;6214162;23;20530;-79
2023/03/21 10:08:03;;;;;;;14.10;9.57;;;12.00;1.00;;;;;;6241295;23;20842;-76
2023/03/21 10:10:35;;;;;;;12.35;9.63;;;11.80;1.00;;;;;;6214448;23;20192;-75
2023/03/21 10:13:00;;;;;;;15.43;10.68;;;11.80;1.00;;;;;;6241574;23;20161;-77
2023/03/21 10:15:27;;;;;;;14.43;10.18;;;11.90;1.00;;;;;;6211328;23;20177;-77
2023/03/21 10:17:58;;;;;;;17.90;12.68;;;12.00;1.00;;;;;;6209275;23;20161;-76
2023/03/21 10:20:35;;;;;;;16.65;10.15;;;11.90;1.00;;;;;;6235563;23;20166;-79
2023/03/21 10:23:05;;;;;;;17.55;12.07;;;12.00;1.00;;;;;;6235253;23;20169;-77
2023/03/21 10:25:44;;;;;;;17.85;12.45;;;12.00;1.00;;;;;;6208467;23;20193;-75
2023/03/21 10:28:17;;;;;;;14.55;10.75;;;11.90;1.00;;;;;;6235163;23;20221;-76
2023/03/21 10:30:46;;;;;;;14.15;11.40;;;11.90;1.00;;;;;;6234611;23;20185;-78
2023/03/21 10:33:19;;;;;;;12.93;10.80;;;11.90;1.00;;;;;;6234636;23;20157;-75
2023/03/21 10:35:50;;;;;;;23.23;16.65;;;11.90;1.00;;;;;;6237968;23;20149;-77
2023/03/21 10:38:19;;;;;;;24.73;17.35;;;12.00;1.00;;;;;;6240255;23;20142;-78
2023/03/21 10:40:45;;;;;;;18.00;12.43;;;12.10;1.00;;;;;;6239370;23;20164;-76
2023/03/21 10:43:17;;;;;;;17.27;12.40;;;12.20;1.00;;;;;;6239457;23;20207;-78
2023/03/21 10:45:47;;;;;;;15.98;11.57;;;12.20;1.00;;;;;;6238643;23;20395;-78
2023/03/21 10:48:13;;;;;;;13.63;10.10;;;12.20;1.00;;;;;;6213180;23;20158;-80
2023/03/21 10:50:41;;;;;;;13.55;10.07;;;12.30;1.00;;;;;;6241432;23;20185;-75
2023/03/21 10:53:19;;;;;;;12.70;9.80;;;12.40;1.00;;;;;;6240231;23;20149;-80
2023/03/21 10:55:50;;;;;;;14.40;10.32;;;12.50;1.00;;;;;;6239997;23;20141;-79
2023/03/21 10:58:26;;;;;;;12.18;9.57;;;12.70;1.00;;;;;;6212623;23;20241;-77
2023/03/21 11:00:56;;;;;;;13.02;9.45;;;12.80;1.00;;;;;;6239340;23;20148;-77
2023/03/21 11:03:43;;;;;;;12.63;9.05;;;12.80;1.00;;;;;;6212010;23;20927;-77
2023/03/21 11:06:20;;;;;;;13.25;8.88;;;13.00;1.00;;;;;;6238959;23;20233;-75
2023/03/21 11:09:01;;;;;;;14.25;8.98;;;13.00;1.00;;;;;;6213695;23;20189;-77
2023/03/21 11:11:38;;;;;;;13.82;8.50;;;13.00;1.00;;;;;;6239231;23;20228;-76
2023/03/21 11:14:08;;;;;;;11.75;8.57;;;13.20;1.00;;;;;;6211927;23;20177;-79
2023/03/21 11:16:42;;;;;;;11.70;9.10;;;13.20;1.00;;;;;;6240340;23;20165;-78
2023/03/21 11:19:25;;;;;;;14.48;8.27;;;13.30;1.00;;;;;;6240223;23;20160;-75
2023/03/21 11:21:51;;;;;;;11.43;7.68;;;13.30;1.00;;;;;;6239130;23;20146;-78
2023/03/21 11:24:18;;;;;;;12.40;7.75;;;13.10;1.00;;;;;;6239432;23;20248;-78
2023/03/21 11:26:46;;;;;;;13.18;8.18;;;13.20;1.00;;;;;;6240518;23;20142;-76
2023/03/21 11:29:31;;;;;;;12.00;7.38;;;13.40;1.00;;;;;;6240233;23;20616;-78
2023/03/21 11:32:00;;;;;;;11.30;7.97;;;13.70;1.00;;;;;;6212706;23;20225;-77
2023/03/21 11:34:48;;;;;;;10.18;7.10;;;13.80;1.00;;;;;;6239230;23;20173;-78
2023/03/21 11:37:26;;;;;;;11.40;7.20;;;14.00;1.00;;;;;;6215788;23;20161;-77
2023/03/21 11:40:05;;;;;;;12.40;7.85;;;13.90;1.00;;;;;;6241265;23;20201;-78
2023/03/21 11:42:39;;;;;;;11.52;7.28;;;13.90;1.00;;;;;;6212814;23;20232;-78
2023/03/21 11:45:22;;;;;;;12.95;7.10;;;14.20;1.00;;;;;;6215573;23;20276;-78
2023/03/21 11:47:50;;;;;;;106.53;19.92;;;13.80;1.00;;;;;;6242779;23;20161;-79
2023/03/21 11:50:23;;;;;;;16.83;8.48;;;13.80;1.00;;;;;;6214666;23;20205;-78
2023/03/21 11:53:06;;;;;;;25.67;9.68;;;13.80;1.00;;;;;;6241897;23;20153;-80
2023/03/21 11:55:35;;;;;;;26.95;10.02;;;13.90;1.00;;;;;;6241542;23;20177;-78
2023/03/21 11:58:33;;;;;;;19.05;8.07;;;13.90;1.00;;;;;;6241559;23;20150;-78
2023/03/21 12:01:02;;;;;;;15.27;7.80;;;13.90;1.00;;;;;;6241034;23;20154;-78
2023/03/21 12:03:46;;;;;;;13.32;7.70;;;13.90;1.00;;;;;;6240303;23;20153;-78
2023/03/21 12:06:24;;;;;;;12.15;7.45;;;13.90;1.00;;;;;;6241258;23;20142;-78
2023/03/21 12:09:20;;;;;;;12.30;6.75;;;13.70;1.00;;;;;;6241949;23;20145;-78
2023/03/21 12:12:01;;;;;;;12.30;7.43;;;13.70;1.00;;;;;;6215042;23;20164;-78
2023/03/21 12:14:41;;;;;;;14.32;7.72;;;13.60;1.00;;;;;;6239304;23;20656;-78
2023/03/21 12:17:29;;;;;;;10.57;6.80;;;13.40;1.00;;;;;;6240234;23;21121;-78
2023/03/21 12:20:24;;;;;;;13.20;7.22;;;13.40;1.00;;;;;;6240380;23;20142;-78
2023/03/21 12:22:58;;;;;;;9.85;6.85;;;13.40;1.00;;;;;;6239697;23;20955;-78
2023/03/21 12:25:30;;;;;;;11.15;7.25;;;13.30;1.00;;;;;;6212596;23;20187;-77
2023/03/21 12:28:02;;;;;;;10.75;7.88;;;13.60;1.00;;;;;;6240287;23;20216;-78
2023/03/21 12:30:59;;;;;;;12.68;7.88;;;13.40;1.00;;;;;;6239517;23;20181;-78
2023/03/21 12:33:56;;;;;;;10.38;7.65;;;13.50;1.00;;;;;;6212808;23;20158;-78
2023/03/21 12:36:40;;;;;;;11.13;7.10;;;13.50;1.00;;;;;;6212606;23;20150;-78
2023/03/21 12:39:18;;;;;;;13.85;7.82;;;13.30;1.00;;;;;;6212894;23;20161;-78
2023/03/21 12:42:15;;;;;;;13.40;7.93;;;13.00;1.00;;;;;;6212479;23;20146;-78
2023/03/21 12:44:46;;;;;;;11.15;7.75;;;12.90;1.00;;;;;;6239141;23;20178;-78
2023/03/21 12:47:25;;;;;;;13.65;7.40;;;12.80;1.00;;;;;;6240082;23;20229;-78
2023/03/21 12:50:07;;;;;;;12.35;7.88;;;12.80;1.00;;;;;;6238636;23;20170;-78
2023/03/21 12:52:36;;;;;;;13.02;8.18;;;12.90;1.00;;;;;;6212226;23;20154;-78
2023/03/21 12:55:06;;;;;;;12.00;8.10;;;13.10;1.00;;;;;;6238498;23;20170;-78
2023/03/21 12:57:39;;;;;;;12.60;8.15;;;13.30;1.00;;;;;;6239594;23;20150;-78
2023/03/21 13:00:34;;;;;;;13.18;8.93;;;13.40;1.00;;;;;;6239265;23;20149;-77
2023/03/21 13:03:11;;;;;;;12.05;8.07;;;13.20;1.00;;;;;;6240755;23;20160;-78